createdAt,value
2022-08-20T00:00:17.427Z,95.03
2022-08-20T00:05:25.762Z,95.06
2022-08-20T00:11:09.056Z,95.2
2022-08-20T00:16:17.431Z,95.2
2022-08-20T00:21:25.710Z,95.26999
2022-08-20T00:26:33.797Z,95.33999
2022-08-20T00:31:41.894Z,95.38
2022-08-20T00:36:49.527Z,95.45
2022-08-20T00:41:57.473Z,95.46
2022-08-20T00:47:05.671Z,95.48
2022-08-20T00:52:13.018Z,95.56
2022-08-20T00:57:21.151Z,95.58001
2022-08-20T01:02:29.931Z,95.68
2022-08-20T01:07:38.092Z,95.69
2022-08-20T01:12:45.092Z,95.68
2022-08-20T01:17:53.451Z,95.68
2022-08-20T01:23:01.742Z,95.63
2022-08-20T01:28:10.551Z,95.68
2022-08-20T01:33:18.515Z,95.7
2022-08-20T01:38:26.327Z,95.78
2022-08-20T01:43:33.368Z,95.81
2022-08-20T01:48:40.562Z,95.80001
2022-08-20T01:53:48.353Z,95.79
2022-08-20T01:58:54.967Z,95.76
2022-08-20T02:04:03.921Z,95.74
2022-08-20T02:09:11.261Z,96.0
2022-08-20T02:14:19.165Z,95.98001
2022-08-20T02:20:07.281Z,95.80001
2022-08-20T02:25:14.176Z,96.04
2022-08-20T02:30:21.658Z,96.15001
2022-08-20T02:35:29.501Z,96.23
2022-08-20T02:40:39.146Z,96.28
2022-08-20T02:45:46.718Z,96.3
2022-08-20T02:50:54.296Z,96.13
2022-08-20T02:56:01.770Z,96.11
2022-08-20T03:01:09.311Z,96.1
2022-08-20T03:06:16.539Z,96.16
2022-08-20T03:11:34.120Z,96.24
2022-08-20T03:16:42.320Z,96.21
2022-08-20T03:21:49.095Z,96.25
2022-08-20T03:26:56.878Z,96.44
2022-08-20T03:32:04.056Z,96.26
2022-08-20T03:37:11.899Z,96.28
2022-08-20T03:42:20.286Z,96.34
2022-08-20T03:47:27.609Z,96.28
2022-08-20T03:52:35.441Z,96.22001
2022-08-20T03:57:43.762Z,96.13
2022-08-20T04:02:51.668Z,96.39
2022-08-20T04:07:58.935Z,96.36001
2022-08-20T04:13:07.283Z,96.48001
2022-08-20T04:18:14.618Z,96.61
2022-08-20T04:23:22.978Z,96.62001
2022-08-20T04:28:31.433Z,96.57001
2022-08-20T04:33:38.773Z,96.6
2022-08-20T04:38:46.612Z,96.48001
2022-08-20T04:43:54.785Z,96.62001
2022-08-20T04:49:01.662Z,96.79
2022-08-20T04:54:09.501Z,96.67
2022-08-20T04:59:17.941Z,96.64001
2022-08-20T05:04:25.344Z,96.63
2022-08-20T05:09:33.607Z,96.53
2022-08-20T05:14:42.551Z,96.53
2022-08-20T05:27:39.453Z,97.16001
2022-08-20T05:36:12.672Z,95.06
2022-08-20T05:41:17.287Z,94.63
2022-08-20T05:46:26.009Z,93.74
2022-08-20T05:51:39.032Z,92.44
2022-08-20T05:56:45.989Z,92.16001
2022-08-20T06:01:54.752Z,89.5
2022-08-20T06:07:02.780Z,88.55
2022-08-20T06:12:10.423Z,87.28
2022-08-20T06:17:17.013Z,83.2
2022-08-20T06:22:26.019Z,74.52
2022-08-20T06:27:32.732Z,70.62
2022-08-20T06:32:39.930Z,71.45
2022-08-20T06:37:47.941Z,70.62
2022-08-20T06:42:55.295Z,67.57
2022-08-20T06:48:02.778Z,57.82
2022-08-20T06:53:10.620Z,51.12
2022-08-20T06:58:18.213Z,48.52
2022-08-20T07:03:26.428Z,47.34
2022-08-20T07:08:34.743Z,46.29
2022-08-20T07:13:42.649Z,43.43
2022-08-20T07:18:50.630Z,41.94
2022-08-20T07:23:58.301Z,41.02
2022-08-20T07:29:05.143Z,40.58
2022-08-20T07:34:12.094Z,40.89
2022-08-20T07:39:20.931Z,40.13
2022-08-20T07:44:27.744Z,40.25
2022-08-20T07:49:36.738Z,39.24
2022-08-20T07:54:44.201Z,41.97
2022-08-20T07:59:51.297Z,42.02
2022-08-20T08:04:58.455Z,42.74
2022-08-20T08:10:06.322Z,42.29
2022-08-20T08:15:13.519Z,42.98
2022-08-20T08:20:20.060Z,46.38
2022-08-20T08:34:01.170Z,53.86
2022-08-20T08:39:07.765Z,53.86
2022-08-20T08:44:15.926Z,52.37
2022-08-20T08:49:23.432Z,53.09
2022-08-20T08:54:32.261Z,55.36
2022-08-20T08:59:40.377Z,57.22
2022-08-20T09:04:49.368Z,56.92
2022-08-20T09:09:57.908Z,52.63
2022-08-20T09:15:05.816Z,47.78
2022-08-20T09:20:13.811Z,46.12
2022-08-20T09:25:21.101Z,49.61
2022-08-20T09:30:28.519Z,51.38
2022-08-20T09:35:36.090Z,52.41
2022-08-20T09:40:44.248Z,52.42
2022-08-20T09:45:52.956Z,54.13
2022-08-20T09:51:01.026Z,52.65
2022-08-20T09:56:09.265Z,49.79
2022-08-20T10:01:16.614Z,48.32
2022-08-20T10:06:23.667Z,46.92
2022-08-20T10:11:30.772Z,51.14
2022-08-20T10:16:38.548Z,52.55
2022-08-20T10:21:45.799Z,50.23
2022-08-20T10:26:53.260Z,53.24
2022-08-20T10:32:00.221Z,53.04
2022-08-20T10:37:07.417Z,51.02
2022-08-20T10:42:15.773Z,51.63
2022-08-20T10:47:23.130Z,54.5
2022-08-20T10:52:30.920Z,52.64
2022-08-20T10:57:38.869Z,53.69
2022-08-20T11:02:46.126Z,55.67
2022-08-20T11:07:54.012Z,56.46
2022-08-20T11:13:01.806Z,57.75
2022-08-20T11:18:10.150Z,57.84
2022-08-20T11:23:17.358Z,58.45
2022-08-20T11:28:25.313Z,57.63
2022-08-20T11:33:33.767Z,56.54
2022-08-20T11:38:40.214Z,55.74
2022-08-20T11:43:48.568Z,55.96
2022-08-20T11:48:55.753Z,55.34
2022-08-20T11:54:05.018Z,55.84
2022-08-20T11:59:13.583Z,55.54
2022-08-20T12:04:21.011Z,56.41
2022-08-20T12:09:29.691Z,55.9
2022-08-20T12:14:38.223Z,55.76
2022-08-20T12:19:44.868Z,56.47
2022-08-20T12:24:53.027Z,57.02
2022-08-20T12:30:00.180Z,56.88
2022-08-20T12:35:07.701Z,57.27
2022-08-20T12:40:18.544Z,57.55
2022-08-20T12:45:27.648Z,57.95
2022-08-20T12:50:35.097Z,57.86
2022-08-20T12:55:41.650Z,58.11
2022-08-20T13:00:49.292Z,57.75
2022-08-20T13:05:56.825Z,57.15
2022-08-20T13:11:04.503Z,57.47
2022-08-20T13:16:12.364Z,55.92
2022-08-20T13:21:21.686Z,55.16
2022-08-20T13:26:28.536Z,56.86
2022-08-20T13:31:35.889Z,58.54
2022-08-20T13:37:06.133Z,60.58
2022-08-20T13:42:15.740Z,62.46
2022-08-20T13:47:22.527Z,64.09
2022-08-20T13:52:30.858Z,65.12001
2022-08-20T13:57:38.627Z,64.94
2022-08-20T14:02:46.383Z,64.64
2022-08-20T14:07:53.838Z,61.53
2022-08-20T14:13:01.178Z,57.5
2022-08-20T14:18:08.898Z,55.59
2022-08-20T14:23:16.924Z,55.68
2022-08-20T14:28:26.502Z,55.62
2022-08-20T14:33:34.294Z,54.86
2022-08-20T14:38:42.137Z,54.08
2022-08-20T14:43:48.735Z,54.65
2022-08-20T14:48:55.899Z,54.6
2022-08-20T14:54:03.848Z,55.7
2022-08-20T14:59:10.970Z,55.6
2022-08-20T15:04:18.134Z,56.93
2022-08-20T15:09:26.011Z,57.72
2022-08-20T15:14:34.242Z,57.98
2022-08-20T15:19:41.686Z,59.57
2022-08-20T15:24:49.505Z,60.6
2022-08-20T15:29:57.342Z,60.48
2022-08-20T15:35:04.575Z,61.0
2022-08-20T15:40:12.389Z,61.98
2022-08-20T15:45:19.705Z,60.46
2022-08-20T15:50:27.749Z,61.9
2022-08-20T15:55:35.809Z,62.19
2022-08-20T16:00:43.124Z,62.51
2022-08-20T16:05:50.331Z,62.62
2022-08-20T16:10:57.506Z,63.06
2022-08-20T16:16:04.914Z,62.92
2022-08-20T16:21:11.941Z,63.23
2022-08-20T16:26:57.550Z,63.47
2022-08-20T16:32:05.019Z,63.81
2022-08-20T16:37:12.138Z,63.18
2022-08-20T16:42:19.512Z,64.39
2022-08-20T16:47:27.547Z,64.39
2022-08-20T16:52:35.098Z,64.96
2022-08-20T16:57:43.227Z,65.52
2022-08-20T17:02:50.459Z,65.88
2022-08-20T17:07:57.641Z,65.78
2022-08-20T17:13:06.295Z,66.63
2022-08-20T17:18:12.759Z,67.74
2022-08-20T17:23:19.930Z,67.95
2022-08-20T17:28:27.509Z,68.36
2022-08-20T17:33:34.320Z,68.92
2022-08-20T17:38:42.205Z,69.45
2022-08-20T17:43:50.222Z,69.64
2022-08-20T17:48:57.180Z,70.23
2022-08-20T17:54:06.187Z,70.69
2022-08-20T17:59:12.934Z,70.83
2022-08-20T18:04:20.065Z,71.17
2022-08-20T18:09:28.156Z,71.63
2022-08-20T18:14:36.229Z,71.83
2022-08-20T18:19:43.091Z,72.19
2022-08-20T18:24:52.202Z,72.58
2022-08-20T18:29:59.433Z,72.93
2022-08-20T18:35:19.719Z,72.66
2022-08-20T18:35:30.067Z,72.66
2022-08-20T18:40:36.705Z,72.94
2022-08-20T18:45:44.696Z,73.33
2022-08-20T18:50:51.895Z,73.51
2022-08-20T18:56:00.798Z,73.62
2022-08-20T19:01:08.091Z,73.66001
2022-08-20T19:06:23.528Z,74.25
2022-08-20T19:11:31.432Z,74.22
2022-08-20T19:16:40.567Z,74.46
2022-08-20T19:21:47.740Z,74.7
2022-08-20T19:26:55.438Z,74.67
2022-08-20T19:32:03.457Z,74.89
2022-08-20T19:37:10.969Z,75.07
2022-08-20T19:42:17.868Z,74.82
2022-08-20T19:47:26.252Z,75.18
2022-08-20T19:52:33.907Z,75.71
2022-08-20T19:57:41.490Z,75.67
2022-08-20T20:02:50.322Z,75.52
2022-08-20T20:07:58.804Z,75.62
2022-08-20T20:13:06.265Z,75.71
2022-08-20T20:18:14.479Z,75.48
2022-08-20T20:23:21.861Z,75.46
2022-08-20T20:28:29.661Z,75.49
2022-08-20T20:33:36.210Z,75.24
2022-08-20T20:38:44.351Z,75.1
2022-08-20T20:43:51.827Z,75.2
2022-08-20T20:48:59.292Z,75.43
2022-08-20T20:54:06.332Z,75.26
2022-08-20T20:59:14.481Z,75.15
2022-08-20T21:04:22.058Z,74.89
2022-08-20T21:09:35.386Z,75.26
2022-08-20T21:14:42.391Z,75.33
2022-08-20T21:19:49.276Z,75.03
2022-08-20T21:24:56.536Z,74.84
2022-08-20T21:30:04.744Z,74.95
2022-08-20T21:35:12.209Z,74.51
2022-08-20T21:40:20.022Z,74.88
2022-08-20T21:45:28.717Z,74.74
2022-08-20T21:50:36.766Z,75.06
2022-08-20T21:55:44.938Z,75.19001
2022-08-20T22:00:52.099Z,74.99
2022-08-20T22:06:01.046Z,75.55
2022-08-20T22:11:08.368Z,75.67
2022-08-20T22:16:16.841Z,75.94
2022-08-20T22:21:24.294Z,76.67
2022-08-20T22:26:33.146Z,76.94
2022-08-20T22:31:40.393Z,79.37
2022-08-20T22:36:48.190Z,80.93
2022-08-20T22:41:56.207Z,80.37001
2022-08-20T22:47:03.625Z,82.22
2022-08-20T22:52:11.976Z,84.16
2022-08-20T22:57:20.348Z,84.54
2022-08-20T23:02:28.983Z,85.92
2022-08-20T23:07:35.892Z,86.99
2022-08-20T23:12:43.113Z,87.94001
2022-08-20T23:17:51.160Z,88.26
2022-08-20T23:22:59.192Z,88.31
2022-08-20T23:28:07.197Z,88.58001
2022-08-20T23:33:14.023Z,89.08
2022-08-20T23:38:21.019Z,89.34
2022-08-20T23:43:28.877Z,89.63
2022-08-20T23:48:36.057Z,90.06
2022-08-20T23:53:43.594Z,90.31
2022-08-20T23:58:51.279Z,90.13
